Historique des mesures à Cassis (13260), France
Quotidien Résumé Avril 4, 2017 Unités:  US    Métrique   Métrique/US
« Précédent (Jour)
Suivant (Jour) »
Quotidien Hebdomadaire Mensuel Annuel Période au choix
  Maximum: Minimum: Moyenne:
Température: 32 °F 56.1 °F 62.6 °F
Point de rosée: 32 °F 41 °F 46.2 °F
Humidité: Humidity % 41 % 53 %
Vitesse du vent: WindSpeedKMH mph 0.0 mph 12 mph
Rafales: WindSpeedGustKMH mph - -
Vent:- - SW
Pression: 0 in 29.9 in -
Précipitations: 0 in    
Historical Graphs
 
 
Mesures pour : Avril 4, 2017
Heure Temperature Point de rosée Pression Vent Vitesse du vent Rafales Humidité Pluie (par heure) Conditions
32 °F 32 °F 0 in Calm     Humidity % 0 in SoftwareType W/m2
00:11 63 °F 47.5 °F 30 in NNW 16.6 mph 16.6 mph 57 % 0 in open2300-1.11 W/m2
01:11 61 °F 48.4 °F 30 in WNW 19.8 mph 20.1 mph 63 % 0 in open2300-1.11 W/m2
02:11 59.7 °F 48.4 °F 30 in North 5.5 mph 5.5 mph 66 % 0 in open2300-1.11 W/m2
03:11 57.7 °F 47.7 °F 29.9 in Calm   2.9 mph 69 % 0 in open2300-1.11 W/m2
04:11 56.8 °F 47.5 °F 29.9 in NNW 4.3 mph 6.8 mph 71 % 0 in open2300-1.11 W/m2
05:11 56.1 °F 46.8 °F 29.9 in NNW 8.2 mph 8.2 mph 71 % 0 in open2300-1.11 W/m2
06:11 56.3 °F 46.9 °F 29.9 in NNW 7.2 mph 8.7 mph 71 % 0 in open2300-1.11 W/m2
07:11 56.7 °F 46.2 °F 29.9 in NW 10.5 mph 10.5 mph 68 % 0 in open2300-1.11 W/m2
08:11 56.1 °F 46 °F 29.9 in North 7.9 mph 9.0 mph 69 % 0 in open2300-1.11 W/m2
09:11 58.8 °F 47.5 °F 29.9 in ESE 1.8 mph 3.2 mph 66 % 0 in open2300-1.11 W/m2
10:11 61.5 °F 47.1 °F 29.9 in North 11.6 mph 11.6 mph 59 % 0 in open2300-1.11 W/m2
11:11 66.6 °F 48.9 °F 29.9 in NW 7.2 mph 21.9 mph 53 % 0 in open2300-1.11 W/m2
12:11 68.4 °F 50 °F 29.9 in NNW 30.2 mph 30.2 mph 52 % 0 in open2300-1.11 W/m2
13:11 69.4 °F 50 °F 29.9 in NW 9.7 mph 24.1 mph 50 % 0 in open2300-1.11 W/m2
14:11 71.2 °F 49.8 °F 29.9 in WNW 27.7 mph 27.7 mph 47 % 0 in open2300-1.11 W/m2
15:11 71.8 °F 49.8 °F 29.9 in West 11.9 mph 31.4 mph 46 % 0 in open2300-1.11 W/m2
16:11 71.8 °F 49.3 °F 29.9 in NNW 19.1 mph 19.5 mph 45 % 0 in open2300-1.11 W/m2
17:11 71.4 °F 47.7 °F 29.9 in North 10.8 mph 10.8 mph 43 % 0 in open2300-1.11 W/m2
18:11 70.5 °F 46.2 °F 29.9 in NNE 16.3 mph 16.3 mph 42 % 0 in open2300-1.11 W/m2
19:11 68.7 °F 44.1 °F 29.9 in NNW 12.2 mph 21.6 mph 41 % 0 in open2300-1.11 W/m2
20:11 66.6 °F 43.9 °F 29.9 in NNW 21.2 mph 36.0 mph 44 % 0 in open2300-1.11 W/m2
21:11 65.1 °F 42.4 °F 29.9 in NW 14.8 mph 26.2 mph 44 % 0 in open2300-1.11 W/m2
22:11 64 °F 42.1 °F 29.9 in North 15.8 mph 16.9 mph 45 % 0 in open2300-1.11 W/m2
23:11 62.8 °F 41 °F 29.9 in NW 10.1 mph 10.1 mph 45 % 0 in open2300-1.11 W/m2
Observations météo à CASSIS
WU-History script by Weather Underground - 1 mb